Time;durP1;ratioP1;P1;durP2;ratioP2;P2;SDS_P1;SDS_P2;PMS_P1;PMS_P2;Temp;Humidity;BMP_temperature;BMP_pressure;BME280_temperature;BME280_humidity;BME280_pressure;Samples;Min_cycle;Max_cycle;Signal;HPM_P1;HPM_P2
2021/12/05 00:21:16;;;;;;;31.02;14.50;;;;;;;4.35;87.93;94003.66;5054462;28;20289;-73
2021/12/05 00:23:46;;;;;;;30.20;14.20;;;;;;;4.33;86.86;94008.53;5064118;28;20213;-71
2021/12/05 00:26:18;;;;;;;33.17;13.85;;;;;;;4.15;87.40;93999.53;5058634;28;20236;-71
2021/12/05 00:31:45;;;;;;;32.15;14.10;;;;;;;4.07;87.83;94000.28;5059086;28;20246;-72
2021/12/05 00:45:55;;;;;;;24.30;11.70;;;;;;;3.38;89.76;94005.72;5057627;28;20245;-72
2021/12/05 00:54:41;;;;;;;25.40;13.55;;;;;;;3.48;90.41;94005.50;5059243;28;20210;-71
2021/12/05 01:00:26;;;;;;;26.30;12.50;;;;;;;3.40;89.96;93990.16;5056318;28;20668;-71
2021/12/05 01:14:32;;;;;;;28.27;12.30;;;;;;;3.30;89.79;93976.16;5087691;28;20234;-71
2021/12/05 01:17:00;;;;;;;25.40;12.27;;;;;;;3.30;88.96;93979.63;5088024;28;20194;-72
2021/12/05 01:19:29;;;;;;;28.13;13.25;;;;;;;3.25;88.85;93973.59;5087956;28;20202;-72
2021/12/05 01:22:00;;;;;;;36.95;15.35;;;;;;;3.20;88.95;93974.50;5088184;28;20263;-72
2021/12/05 01:24:38;;;;;;;29.15;11.98;;;;;;;3.14;89.00;93975.69;5088273;28;20210;-72
2021/12/05 01:27:13;;;;;;;26.38;12.30;;;;;;;3.01;89.85;93965.75;5088569;28;20190;-72
2021/12/05 01:29:47;;;;;;;32.45;13.80;;;;;;;3.01;90.22;93963.06;5088226;28;20221;-72
2021/12/05 01:32:22;;;;;;;29.30;12.60;;;;;;;2.85;90.22;93949.22;5087684;28;20194;-72
2021/12/05 01:35:03;;;;;;;38.67;15.05;;;;;;;2.81;90.46;93950.88;5097525;28;20192;-72
2021/12/05 01:37:40;;;;;;;37.35;16.23;;;;;;;2.89;90.32;93946.72;5088514;28;20603;-72
2021/12/05 01:40:39;;;;;;;31.52;12.35;;;;;;;2.75;90.28;93936.81;5088074;28;20213;-72
2021/12/05 01:54:40;;;;;;;33.05;14.68;;;;;;;3.11;90.84;93928.13;5049103;28;20207;-71
2021/12/05 01:57:44;;;;;;;35.05;14.23;;;;;;;3.07;91.20;93922.56;5054722;28;20751;-71
2021/12/05 02:31:21;;;;;;;33.53;14.07;;;;;;;2.78;91.75;93988.91;5039918;28;20311;-72
2021/12/05 02:42:16;;;;;;;42.50;16.65;;;;;;;3.02;91.72;93967.34;5039675;28;20218;-72
2021/12/05 02:44:46;;;;;;;35.67;15.88;;;;;;;3.15;91.75;93961.19;5053189;28;20192;-72
2021/12/05 02:47:16;;;;;;;41.13;17.48;;;;;;;3.25;91.60;93955.66;5040467;28;20208;-71
2021/12/05 02:49:46;;;;;;;39.05;16.20;;;;;;;3.35;91.02;93960.00;5053049;28;20224;-72
2021/12/05 02:52:22;;;;;;;38.22;17.05;;;;;;;3.45;90.48;93952.56;5053210;28;20210;-72
2021/12/05 02:54:54;;;;;;;37.85;15.15;;;;;;;3.49;90.65;93955.44;5053104;28;20214;-72
2021/12/05 02:57:33;;;;;;;40.55;16.67;;;;;;;3.66;90.64;93952.16;5058166;28;20206;-72
2021/12/05 03:00:07;;;;;;;41.63;16.75;;;;;;;3.80;90.03;93945.66;5054295;28;20204;-72
2021/12/05 03:02:40;;;;;;;30.75;14.80;;;;;;;3.88;88.94;93944.16;5052513;28;20227;-72
2021/12/05 03:05:11;;;;;;;31.58;15.90;;;;;;;3.82;89.43;93953.41;5052920;28;20211;-72
2021/12/05 03:07:41;;;;;;;41.75;15.65;;;;;;;3.98;89.13;93951.94;5052604;28;20211;-72
2021/12/05 03:10:13;;;;;;;34.65;14.13;;;;;;;4.11;88.80;93951.09;5052074;28;20274;-72
2021/12/05 03:12:39;;;;;;;36.28;14.63;;;;;;;4.12;88.31;93952.69;5050060;28;20643;-72
2021/12/05 03:15:11;;;;;;;32.00;15.55;;;;;;;4.18;87.71;93935.41;5041787;28;20195;-71
2021/12/05 03:17:37;;;;;;;30.35;14.13;;;;;;;4.36;87.40;93940.91;5038842;28;20203;-72
2021/12/05 03:20:06;;;;;;;36.60;15.60;;;;;;;4.39;87.42;93942.94;5042438;28;20200;-72
2021/12/05 03:22:33;;;;;;;38.20;15.88;;;;;;;4.41;87.75;93938.06;5045102;28;20667;-71
2021/12/05 03:25:00;;;;;;;34.00;14.48;;;;;;;4.48;87.47;93943.81;5042400;28;20249;-71
2021/12/05 03:27:28;;;;;;;33.17;15.35;;;;;;;4.62;87.50;93945.34;5038827;28;20199;-72
2021/12/05 03:29:55;;;;;;;35.63;14.77;;;;;;;4.54;87.26;93943.38;5041259;28;20670;-71
2021/12/05 03:32:22;;;;;;;33.92;14.85;;;;;;;4.73;86.58;93945.84;5044685;28;20204;-71
2021/12/05 03:34:49;;;;;;;30.95;13.45;;;;;;;4.77;86.82;93946.84;5051372;28;20207;-72
2021/12/05 03:37:16;;;;;;;32.60;13.88;;;;;;;4.88;86.31;93947.34;5054567;28;20249;-72
2021/12/05 03:39:43;;;;;;;38.33;14.77;;;;;;;4.90;86.35;93940.59;5051967;28;20593;-72
2021/12/05 03:42:10;;;;;;;31.27;14.35;;;;;;;4.83;86.31;93934.84;5046992;28;20201;-72
2021/12/05 03:44:40;;;;;;;35.65;15.18;;;;;;;4.77;86.43;93927.25;5043666;28;20570;-72
2021/12/05 03:47:08;;;;;;;35.35;15.00;;;;;;;4.78;86.59;93932.31;5052218;28;20203;-72
2021/12/05 03:49:37;;;;;;;32.92;15.88;;;;;;;4.80;87.28;93932.00;5051786;28;20289;-72
2021/12/05 03:52:08;;;;;;;28.90;13.75;;;;;;;4.80;87.29;93930.09;5038198;28;20701;-72
2021/12/05 03:54:36;;;;;;;27.35;13.15;;;;;;;4.88;87.13;93932.06;5051838;28;20596;-72
2021/12/05 03:57:04;;;;;;;29.73;13.23;;;;;;;5.03;86.63;93935.44;5054816;28;20236;-72
2021/12/05 03:59:31;;;;;;;31.73;14.60;;;;;;;5.08;86.00;93935.28;5057268;28;20200;-72
2021/12/05 04:02:02;;;;;;;30.23;14.32;;;;;;;4.97;86.27;93935.56;5051714;28;20207;-72
2021/12/05 04:04:29;;;;;;;30.10;13.50;;;;;;;4.92;86.66;93932.22;5038156;28;20250;-72
2021/12/05 04:06:56;;;;;;;28.00;13.63;;;;;;;4.86;86.89;93939.63;5051976;28;20245;-72
2021/12/05 04:09:23;;;;;;;30.40;15.18;;;;;;;4.98;86.73;93942.50;5049611;28;20732;-72
2021/12/05 04:11:57;;;;;;;31.08;14.75;;;;;;;4.99;86.36;93935.25;5039946;28;20243;-72
2021/12/05 04:14:27;;;;;;;34.38;13.93;;;;;;;4.62;87.53;93934.59;5037561;28;20194;-73
2021/12/05 04:16:54;;;;;;;31.98;14.10;;;;;;;4.77;88.03;93946.84;5051821;28;20265;-72
2021/12/05 04:19:24;;;;;;;36.00;16.13;;;;;;;4.88;87.17;93942.78;5051483;28;20200;-72
2021/12/05 04:21:50;;;;;;;30.52;13.43;;;;;;;4.87;87.55;93933.16;5051416;28;20275;-73
2021/12/05 04:24:18;;;;;;;30.00;12.85;;;;;;;4.91;87.13;93934.13;5051326;28;20257;-72
2021/12/05 04:26:45;;;;;;;32.78;14.88;;;;;;;4.82;87.22;93938.63;5040984;28;20666;-72
2021/12/05 04:29:12;;;;;;;33.63;14.43;;;;;;;4.69;87.62;93944.88;5044683;28;20209;-72
2021/12/05 04:31:40;;;;;;;27.08;13.02;;;;;;;4.78;88.09;93963.72;5041752;28;20231;-72
2021/12/05 04:34:08;;;;;;;29.08;13.73;;;;;;;4.92;87.23;93962.50;5041219;28;20204;-72
2021/12/05 04:36:36;;;;;;;30.63;13.63;;;;;;;5.02;86.50;93960.69;5059904;28;20237;-72
2021/12/05 04:39:04;;;;;;;32.38;13.82;;;;;;;4.97;87.12;93957.03;5046434;28;20204;-72
2021/12/05 04:41:31;;;;;;;35.13;14.15;;;;;;;5.11;86.44;93950.78;5042909;28;20200;-72
2021/12/05 04:44:00;;;;;;;28.67;14.88;;;;;;;5.08;86.67;93959.44;5037412;28;20199;-73
2021/12/05 04:46:27;;;;;;;29.50;13.52;;;;;;;5.10;86.00;93960.72;5038947;28;20207;-73
2021/12/05 04:48:57;;;;;;;40.28;15.88;;;;;;;4.90;86.62;93956.69;5044094;28;20615;-73
2021/12/05 04:51:28;;;;;;;32.38;16.45;;;;;;;4.85;86.76;93964.06;5043449;28;20235;-72
2021/12/05 04:53:57;;;;;;;48.92;19.65;;;;;;;4.83;87.50;93972.41;5050995;28;20257;-72
2021/12/05 04:56:25;;;;;;;35.45;15.52;;;;;;;4.76;87.94;93966.72;5037730;28;20250;-72
2021/12/05 04:58:53;;;;;;;40.85;18.88;;;;;;;4.93;87.29;93960.63;5059571;28;20199;-72
2021/12/05 05:01:21;;;;;;;36.95;17.13;;;;;;;4.97;86.81;93973.13;5047720;28;20211;-72
2021/12/05 05:03:48;;;;;;;38.33;18.00;;;;;;;4.78;87.38;93980.63;5040019;28;20204;-71
2021/12/05 05:06:17;;;;;;;36.03;14.95;;;;;;;4.64;88.26;93991.41;5037549;28;20270;-71
2021/12/05 05:08:46;;;;;;;39.58;16.85;;;;;;;4.57;88.29;93984.88;5040944;28;20242;-71
2021/12/05 05:11:16;;;;;;;36.40;19.02;;;;;;;4.53;89.07;93981.22;5043701;28;20244;-72
2021/12/05 05:13:44;;;;;;;31.13;16.00;;;;;;;4.66;88.66;93993.78;5040663;28;20353;-72
2021/12/05 05:16:13;;;;;;;35.13;15.02;;;;;;;4.42;88.82;93993.28;5036751;28;20207;-72
2021/12/05 05:18:45;;;;;;;33.63;15.35;;;;;;;4.58;89.18;93998.00;5039015;28;20200;-73
2021/12/05 05:21:18;;;;;;;45.15;17.58;;;;;;;4.56;88.96;93991.34;5043907;28;20207;-73
2021/12/05 05:24:08;;;;;;;42.13;18.52;;;;;;;4.57;88.96;93995.63;5043366;28;20188;-72
2021/12/05 05:26:58;;;;;;;34.15;15.75;;;;;;;4.53;88.88;93986.59;5040171;28;20291;-72
2021/12/05 05:29:49;;;;;;;37.85;16.30;;;;;;;4.47;88.92;93985.13;5043988;28;20279;-72
2021/12/05 05:40:46;;;;;;;33.65;14.68;;;;;;;4.56;88.80;93988.66;5050562;28;20234;-72
2021/12/05 05:43:27;;;;;;;32.72;14.32;;;;;;;4.44;88.86;93989.22;5050251;28;20200;-73
2021/12/05 05:46:07;;;;;;;38.05;17.23;;;;;;;4.36;89.43;93991.84;5038903;28;20200;-72
2021/12/05 05:48:47;;;;;;;36.15;15.85;;;;;;;4.12;90.17;93989.41;5046752;28;20215;-72
2021/12/05 05:51:14;;;;;;;29.65;13.88;;;;;;;4.24;90.33;93987.00;5042269;28;20726;-72
2021/12/05 05:53:42;;;;;;;34.35;15.10;;;;;;;4.16;90.05;93980.47;5049958;28;20207;-72
2021/12/05 05:56:15;;;;;;;41.97;16.50;;;;;;;4.17;90.04;93978.59;5050021;28;20292;-72
2021/12/05 05:58:47;;;;;;;44.55;17.38;;;;;;;4.26;90.34;93974.88;5059597;28;20191;-72
2021/12/05 06:01:20;;;;;;;47.17;17.17;;;;;;;4.31;90.00;93967.81;5051948;28;20666;-72
2021/12/05 06:03:48;;;;;;;39.42;16.42;;;;;;;4.38;89.95;93971.66;5043535;28;20660;-72
2021/12/05 06:06:17;;;;;;;46.22;17.80;;;;;;;4.62;89.61;93976.72;5040459;28;20199;-72
2021/12/05 06:08:46;;;;;;;35.97;16.50;;;;;;;4.69;88.91;93977.06;5043407;28;20212;-72
2021/12/05 06:11:16;;;;;;;36.38;15.82;;;;;;;4.67;88.61;93990.00;5046647;28;20247;-72
2021/12/05 06:13:45;;;;;;;36.38;16.10;;;;;;;4.67;88.73;93991.88;5045461;28;20207;-72
2021/12/05 06:16:14;;;;;;;41.05;17.50;;;;;;;4.81;88.47;93990.72;5040183;28;20384;-72
2021/12/05 06:18:42;;;;;;;36.55;16.20;;;;;;;4.86;88.46;93992.47;5041073;28;20670;-72
2021/12/05 06:21:09;;;;;;;40.03;16.85;;;;;;;4.84;88.12;93987.41;5047041;28;20208;-72
2021/12/05 06:23:37;;;;;;;38.35;18.35;;;;;;;4.90;87.77;94001.50;5046586;28;20200;-71
2021/12/05 06:26:05;;;;;;;41.58;17.80;;;;;;;5.03;87.84;94003.31;5053485;28;20581;-73
2021/12/05 06:28:38;;;;;;;40.60;17.50;;;;;;;5.08;87.49;94013.13;5039644;28;20658;-72
2021/12/05 06:31:20;;;;;;;38.13;17.67;;;;;;;5.11;86.29;94015.19;5040427;28;20269;-73
2021/12/05 06:36:59;;;;;;;42.28;17.70;;;;;;;5.18;86.14;94020.91;5052653;28;20341;-72
2021/12/05 06:39:39;;;;;;;38.05;16.65;;;;;;;5.09;85.87;94028.91;5053362;28;20227;-72
2021/12/05 06:42:46;;;;;;;30.90;15.55;;;;;;;4.67;87.47;94032.91;5040019;28;20596;-72
2021/12/05 06:47:53;;;;;;;32.45;13.48;;;;;;;4.28;89.61;94052.31;5041096;28;20421;-72
2021/12/05 06:50:20;;;;;;;41.42;18.08;;;;;;;4.32;89.72;94060.56;5046521;28;20254;-72
2021/12/05 06:52:47;;;;;;;32.70;13.57;;;;;;;4.08;90.54;94058.13;5045166;28;20698;-71
2021/12/05 06:55:15;;;;;;;41.92;18.63;;;;;;;4.02;90.94;94070.84;5038946;28;20287;-72
2021/12/05 06:57:42;;;;;;;43.72;16.85;;;;;;;4.00;91.02;94067.66;5056958;28;20195;-71
2021/12/05 07:00:16;;;;;;;47.83;18.02;;;;;;;3.95;91.63;94075.81;5052863;28;20208;-72
2021/12/05 07:02:43;;;;;;;41.40;17.17;;;;;;;3.97;91.77;94078.97;5051649;28;20230;-72
2021/12/05 07:05:34;;;;;;;39.60;16.95;;;;;;;4.17;91.59;94073.19;5039227;28;20203;-72
2021/12/05 07:08:01;;;;;;;33.08;14.82;;;;;;;4.32;90.59;94068.59;5039289;28;20681;-73
2021/12/05 07:10:31;;;;;;;37.97;16.83;;;;;;;4.48;90.34;94072.53;5052111;28;20717;-72
2021/12/05 07:15:47;;;;;;;45.45;18.23;;;;;;;5.23;88.64;94067.22;5044437;28;20685;-72
2021/12/05 07:21:16;;;;;;;42.65;16.63;;;;;;;5.35;86.78;94063.94;5051569;28;20187;-72
2021/12/05 07:23:50;;;;;;;34.17;15.43;;;;;;;5.58;85.90;94062.03;5040006;28;20204;-72
2021/12/05 07:26:23;;;;;;;24.45;11.88;;;;;;;5.39;85.72;94059.56;5039513;28;20223;-72
2021/12/05 07:42:38;;;;;;;24.30;12.20;;;;;;;6.16;83.06;94050.97;5039835;28;20195;-73
2021/12/05 07:45:07;;;;;;;26.23;11.73;;;;;;;6.23;82.79;94054.00;5049528;28;20304;-72
2021/12/05 07:47:36;;;;;;;27.60;13.15;;;;;;;5.98;83.65;94052.06;5040132;28;20695;-71
2021/12/05 07:50:07;;;;;;;27.02;11.80;;;;;;;5.94;83.59;94043.03;5038414;28;20224;-72
2021/12/05 07:52:40;;;;;;;27.67;12.48;;;;;;;6.01;83.51;94038.00;5051604;28;20216;-72
2021/12/05 07:55:14;;;;;;;24.15;11.98;;;;;;;6.10;83.43;94041.50;5047438;28;20192;-72
2021/12/05 07:57:57;;;;;;;28.25;12.88;;;;;;;6.30;83.29;94040.88;5051958;28;20205;-72
2021/12/05 08:00:32;;;;;;;22.98;11.05;;;;;;;6.59;81.89;94036.78;5039782;28;20195;-72
2021/12/05 08:16:50;;;;;;;25.27;11.98;;;;;;;7.04;81.38;94037.22;5040034;28;20195;-73
2021/12/05 08:19:18;;;;;;;25.27;13.25;;;;;;;7.43;79.20;94039.66;5047646;28;20220;-72
2021/12/05 08:21:45;;;;;;;30.88;13.30;;;;;;;7.85;76.81;94029.81;5041941;28;20218;-71
2021/12/05 08:24:14;;;;;;;30.45;17.52;;;;;;;7.67;77.91;94049.88;5037454;28;20208;-70
2021/12/05 08:26:42;;;;;;;31.33;16.17;;;;;;;7.85;77.53;94046.00;5039549;28;20207;-70
2021/12/05 08:29:13;;;;;;;25.67;12.05;;;;;;;8.08;76.19;94051.13;5044438;28;20660;-69
2021/12/05 08:32:02;;;;;;;29.17;13.05;;;;;;;7.88;76.00;94057.25;5042922;28;20307;-69
2021/12/05 08:34:46;;;;;;;24.95;11.50;;;;;;;8.23;77.99;94053.25;5045903;28;20282;-69
2021/12/05 08:37:45;;;;;;;25.60;12.30;;;;;;;8.21;77.06;94052.78;5053229;28;20283;-69
2021/12/05 09:24:48;;;;;;;16.55;9.30;;;;;;;7.77;74.97;93984.84;5053837;28;20895;-72
2021/12/05 09:38:55;;;;;;;20.80;10.50;;;;;;;7.76;76.41;93961.69;5066402;28;20290;-71
2021/12/05 10:09:16;;;;;;;27.70;15.68;;;;;;;8.34;73.61;93916.88;5052681;28;20286;-73
2021/12/05 10:11:50;;;;;;;22.40;13.68;;;;;;;8.44;72.98;93913.78;5052921;28;20192;-73
2021/12/05 10:14:35;;;;;;;25.27;15.27;;;;;;;8.53;72.44;93914.47;5048663;28;20187;-72
2021/12/05 10:17:43;;;;;;;28.13;15.95;;;;;;;8.65;72.04;93910.25;5044797;28;20211;-74
2021/12/05 10:26:07;;;;;;;27.50;15.10;;;;;;;8.20;73.58;93909.00;5044968;28;20242;-73
2021/12/05 10:26:56;;;;;;;28.27;15.10;;;;;;;8.16;73.29;93899.22;5010237;28;20211;-71
2021/12/05 10:35:25;;;;;;;23.08;13.50;;;;;;;8.21;72.30;93896.31;5054782;28;20199;-72
2021/12/05 10:37:59;;;;;;;25.58;13.50;;;;;;;8.25;72.26;93891.06;5052697;28;20204;-73
2021/12/05 10:40:35;;;;;;;22.10;14.45;;;;;;;8.40;72.37;93890.47;5038933;28;20693;-72
2021/12/05 10:43:03;;;;;;;23.27;14.27;;;;;;;8.70;71.44;93886.53;5051927;28;20283;-74
2021/12/05 10:45:35;;;;;;;26.70;14.35;;;;;;;8.83;70.93;93879.25;5051560;28;20203;-73
2021/12/05 10:48:06;;;;;;;24.60;14.45;;;;;;;9.04;70.23;93866.44;5045513;28;20232;-73
2021/12/05 10:50:40;;;;;;;29.05;14.80;;;;;;;9.18;70.13;93864.19;5046959;28;20276;-73
2021/12/05 10:53:29;;;;;;;25.05;15.35;;;;;;;8.83;70.58;93857.66;5043862;28;20630;-71
2021/12/05 10:56:00;;;;;;;27.30;15.13;;;;;;;8.76;71.33;93857.41;5044091;28;20196;-72
2021/12/05 10:58:33;;;;;;;27.42;15.40;;;;;;;9.22;69.94;93854.31;5061458;28;20539;-73
2021/12/05 11:01:13;;;;;;;23.60;13.88;;;;;;;9.43;69.34;93842.59;5052493;28;20200;-72
2021/12/05 11:03:41;;;;;;;17.55;11.73;;;;;;;9.23;68.65;93850.47;5040747;28;20281;-72
2021/12/05 11:06:27;;;;;;;18.63;11.27;;;;;;;8.66;70.67;93847.81;5052062;28;20366;-70
2021/12/05 11:08:57;;;;;;;19.60;12.18;;;;;;;8.48;71.10;93835.63;5051470;28;20281;-74
2021/12/05 11:11:25;;;;;;;20.13;12.10;;;;;;;8.69;70.56;93843.66;5050068;28;20207;-73
2021/12/05 11:13:51;;;;;;;20.77;11.38;;;;;;;8.80;69.97;93836.72;5050686;28;20218;-73
2021/12/05 11:16:40;;;;;;;20.35;11.77;;;;;;;8.90;69.68;93841.66;5046012;28;20197;-74
2021/12/05 11:19:22;;;;;;;20.85;11.73;;;;;;;9.17;69.00;93830.19;5047184;28;20272;-73
2021/12/05 11:21:56;;;;;;;21.92;11.73;;;;;;;9.18;68.76;93814.78;5051759;28;20295;-73
2021/12/05 11:24:30;;;;;;;15.82;10.30;;;;;;;8.95;68.95;93817.16;5051141;28;20647;-74
2021/12/05 11:27:15;;;;;;;21.17;11.85;;;;;;;8.91;69.68;93808.13;5038448;28;20280;-73
2021/12/05 11:29:45;;;;;;;17.70;11.52;;;;;;;9.18;68.97;93799.34;5040433;28;20195;-74
2021/12/05 11:32:19;;;;;;;15.98;9.90;;;;;;;9.33;67.67;93799.78;5049056;28;20235;-73
2021/12/05 11:34:47;;;;;;;17.10;10.50;;;;;;;9.32;67.94;93803.63;5050498;28;20199;-73
2021/12/05 11:37:14;;;;;;;20.35;11.35;;;;;;;9.37;68.27;93795.28;5054350;28;20204;-74
2021/12/05 11:39:41;;;;;;;20.73;12.32;;;;;;;9.17;68.45;93792.38;5041075;28;20205;-73
2021/12/05 11:42:20;;;;;;;19.50;12.05;;;;;;;9.17;69.35;93776.16;5044817;28;20204;-73
2021/12/05 11:44:54;;;;;;;17.67;11.48;;;;;;;9.35;68.30;93775.94;5044200;28;20191;-73
2021/12/05 11:47:24;;;;;;;18.35;11.52;;;;;;;9.55;67.62;93769.59;5038045;28;20270;-73
2021/12/05 11:49:50;;;;;;;19.38;11.07;;;;;;;9.27;68.16;93770.31;5051757;28;20290;-74
2021/12/05 11:52:23;;;;;;;21.75;11.90;;;;;;;10.03;72.96;93763.22;5050838;28;20658;-72
2021/12/05 11:54:51;;;;;;;19.65;11.80;;;;;;;10.29;71.77;93765.50;5050671;28;20461;-71
2021/12/05 11:57:24;;;;;;;19.85;12.15;;;;;;;10.17;66.33;93752.00;5056272;28;20580;-73
2021/12/05 11:59:52;;;;;;;21.13;11.77;;;;;;;10.07;66.57;93763.31;5053624;28;20199;-73
2021/12/05 12:02:25;;;;;;;19.65;11.98;;;;;;;9.75;67.10;93754.31;5051228;28;20717;-72
2021/12/05 12:04:55;;;;;;;22.15;13.35;;;;;;;9.80;67.71;93754.88;5037667;28;20539;-72
2021/12/05 12:07:28;;;;;;;19.58;11.68;;;;;;;9.64;67.35;93759.41;5038899;28;20192;-72
2021/12/05 12:10:00;;;;;;;20.98;11.48;;;;;;;9.65;67.20;93752.09;5044237;28;20713;-72
2021/12/05 12:12:27;;;;;;;23.52;11.93;;;;;;;9.67;67.36;93742.50;5044375;28;20203;-71
2021/12/05 12:14:54;;;;;;;21.50;12.00;;;;;;;9.71;67.44;93746.09;5037832;28;20216;-73
2021/12/05 12:17:24;;;;;;;21.02;12.90;;;;;;;9.82;67.53;93741.78;5037705;28;20566;-72
2021/12/05 12:19:54;;;;;;;21.40;11.68;;;;;;;9.87;66.83;93733.41;5043294;28;20313;-72
2021/12/05 12:22:25;;;;;;;18.65;10.30;;;;;;;9.77;66.91;93733.91;5044021;28;20278;-72
2021/12/05 12:24:54;;;;;;;17.75;10.98;;;;;;;9.68;67.15;93735.97;5040140;28;20208;-72
2021/12/05 12:27:21;;;;;;;20.08;11.13;;;;;;;9.71;67.30;93729.88;5050998;28;20261;-73
2021/12/05 12:29:53;;;;;;;16.75;10.50;;;;;;;9.76;67.33;93723.44;5050623;28;20225;-73
2021/12/05 12:32:26;;;;;;;17.67;10.82;;;;;;;9.82;66.97;93735.59;5046877;28;20739;-73
2021/12/05 12:35:00;;;;;;;21.55;11.57;;;;;;;9.59;67.43;93727.19;5052076;28;20187;-73
2021/12/05 12:37:28;;;;;;;21.33;10.88;;;;;;;9.60;67.70;93732.28;5051859;28;20192;-74
2021/12/05 12:39:56;;;;;;;17.85;11.30;;;;;;;9.56;68.33;93730.63;5038110;28;20685;-73
2021/12/05 12:42:28;;;;;;;20.27;11.73;;;;;;;9.49;68.34;93727.69;5049633;28;20214;-72
2021/12/05 12:45:02;;;;;;;19.35;11.35;;;;;;;9.27;69.50;93729.78;5049753;28;20223;-73
2021/12/05 12:47:36;;;;;;;21.50;12.43;;;;;;;9.34;68.74;93714.91;5040911;28;20770;-74
2021/12/05 12:50:37;;;;;;;22.73;11.52;;;;;;;9.44;68.65;93715.19;5043932;28;20262;-71
2021/12/05 12:53:12;;;;;;;19.77;11.93;;;;;;;9.35;68.98;93711.06;5041710;28;20199;-73
2021/12/05 12:55:42;;;;;;;20.02;11.85;;;;;;;9.29;69.61;93717.84;5047608;28;20253;-72
2021/12/05 12:58:11;;;;;;;18.10;10.77;;;;;;;9.31;69.20;93710.16;5057790;28;20200;-73
2021/12/05 13:00:41;;;;;;;18.60;11.30;;;;;;;9.42;68.74;93703.19;5050054;28;20211;-73
2021/12/05 13:03:39;;;;;;;19.10;11.48;;;;;;;9.44;69.33;93709.78;5046764;28;20192;-71
2021/12/05 13:11:55;;;;;;;20.05;11.27;;;;;;;9.52;69.00;93716.19;5039527;28;20192;-74
2021/12/05 13:14:23;;;;;;;20.73;11.70;;;;;;;9.65;68.76;93717.72;5050035;28;20196;-74
2021/12/05 13:16:50;;;;;;;24.00;11.48;;;;;;;9.49;69.82;93711.47;5049907;28;20203;-74
2021/12/05 13:19:23;;;;;;;20.50;11.02;;;;;;;9.46;70.36;93706.75;5046632;28;20208;-73
2021/12/05 13:21:54;;;;;;;19.73;11.77;;;;;;;9.45;70.49;93708.66;5041454;28;20188;-75
2021/12/05 13:24:27;;;;;;;19.55;12.57;;;;;;;9.52;70.73;93710.78;5036273;28;20946;-74
2021/12/05 13:27:01;;;;;;;18.25;11.63;;;;;;;9.42;71.34;93700.47;5037265;28;20208;-73
2021/12/05 13:29:29;;;;;;;22.05;11.07;;;;;;;9.34;71.46;93695.97;5037782;28;20215;-74
2021/12/05 13:32:05;;;;;;;20.35;11.88;;;;;;;9.27;71.84;93683.84;5049200;28;20826;-75
2021/12/05 13:34:49;;;;;;;22.48;12.10;;;;;;;9.15;72.44;93697.38;5048403;28;20271;-72
2021/12/05 13:37:26;;;;;;;22.27;11.98;;;;;;;9.09;72.37;93698.75;5056333;28;20245;-74
2021/12/05 13:40:06;;;;;;;20.48;11.95;;;;;;;8.97;72.83;93706.88;5054256;28;20249;-76
2021/12/05 13:42:42;;;;;;;21.20;12.45;;;;;;;8.87;73.34;93693.84;5039401;28;20203;-72
2021/12/05 13:45:23;;;;;;;22.17;12.20;;;;;;;8.77;73.38;93708.56;5053989;28;20234;-73
2021/12/05 13:48:15;;;;;;;19.70;11.50;;;;;;;8.77;73.56;93718.56;5053311;28;20737;-72
2021/12/05 13:50:50;;;;;;;19.30;11.10;;;;;;;8.66;74.01;93717.44;5040883;28;20191;-74
2021/12/05 13:53:25;;;;;;;18.40;12.07;;;;;;;8.62;74.41;93711.16;5051146;28;20249;-73
2021/12/05 13:56:21;;;;;;;20.95;12.30;;;;;;;8.60;74.62;93714.22;5043885;28;20195;-74
2021/12/05 13:58:51;;;;;;;22.33;12.35;;;;;;;8.51;74.92;93717.00;5058796;28;20237;-74
2021/12/05 14:01:23;;;;;;;20.42;11.48;;;;;;;8.55;75.00;93715.22;5053099;28;20698;-73
2021/12/05 14:03:57;;;;;;;31.17;16.10;;;;;;;8.52;75.17;93713.19;5053064;28;20219;-73
2021/12/05 14:06:29;;;;;;;26.48;14.93;;;;;;;8.33;74.71;93715.66;5052350;28;20206;-73
2021/12/05 14:08:59;;;;;;;26.83;13.52;;;;;;;8.15;74.63;93719.63;5041839;28;20216;-73
2021/12/05 14:11:28;;;;;;;34.50;16.13;;;;;;;8.01;75.05;93719.16;5046318;28;20967;-73
2021/12/05 14:13:55;;;;;;;31.33;16.75;;;;;;;7.89;75.67;93714.50;5045789;28;20207;-71
2021/12/05 14:16:31;;;;;;;29.30;15.07;;;;;;;7.75;75.58;93705.94;5052720;28;20720;-71
2021/12/05 14:18:58;;;;;;;34.15;16.75;;;;;;;7.67;76.21;93710.25;5039894;28;20208;-72
2021/12/05 14:21:27;;;;;;;80.80;34.33;;;;;;;7.54;76.21;93705.16;5052993;28;20632;-73
2021/12/05 14:23:56;;;;;;;31.55;17.55;;;;;;;7.45;77.63;93707.94;5053191;28;20204;-73
2021/12/05 14:26:26;;;;;;;38.58;19.23;;;;;;;7.41;77.53;93717.78;5044682;28;20208;-74
2021/12/05 14:28:58;;;;;;;25.65;15.13;;;;;;;7.38;77.70;93713.09;5046078;28;20745;-73
2021/12/05 14:31:26;;;;;;;29.85;16.20;;;;;;;7.31;77.97;93707.41;5041739;28;20261;-73
2021/12/05 14:33:54;;;;;;;28.90;16.88;;;;;;;7.23;78.27;93705.59;5041199;28;20285;-73
2021/12/05 14:36:24;;;;;;;26.08;15.60;;;;;;;7.16;78.61;93716.09;5063154;28;20203;-75
2021/12/05 14:41:44;;;;;;;24.70;12.27;;;;;;;6.82;79.65;93706.38;5142468;27;1404370;-73
2021/12/05 14:44:12;;;;;;;34.50;12.88;;;;;;;6.87;80.18;93692.69;5157442;27;20203;-70
2021/12/05 14:46:59;;;;;;;30.67;14.38;;;;;;;6.92;79.52;93687.91;5156175;27;20239;-70
2021/12/05 14:49:28;;;;;;;34.92;17.00;;;;;;;6.85;80.21;93698.41;5159671;27;20192;-71
2021/12/05 14:51:57;;;;;;;42.53;20.80;;;;;;;6.79;80.87;93715.88;5163628;27;20204;-72
2021/12/05 14:54:29;;;;;;;27.40;12.68;;;;;;;6.74;81.16;93721.44;5137807;27;20682;-71
2021/12/05 14:56:58;;;;;;;25.10;11.90;;;;;;;6.46;81.79;93714.94;5134144;27;20213;-74
2021/12/05 14:59:26;;;;;;;27.75;12.57;;;;;;;6.38;82.30;93720.03;5149128;27;20203;-74
2021/12/05 15:01:57;;;;;;;25.33;11.60;;;;;;;6.27;82.91;93732.28;5156210;27;20212;-73
2021/12/05 15:04:28;;;;;;;24.63;11.73;;;;;;;6.25;82.51;93739.06;5156476;27;20197;-74
2021/12/05 15:06:55;;;;;;;22.63;11.75;;;;;;;6.14;82.45;93727.88;5161348;27;20193;-74
2021/12/05 15:09:27;;;;;;;28.08;12.82;;;;;;;6.02;83.16;93727.75;5134845;27;20213;-74
2021/12/05 15:11:59;;;;;;;19.98;10.70;;;;;;;5.95;83.80;93727.47;5157529;27;20211;-74
2021/12/05 15:14:29;;;;;;;47.55;20.98;;;;;;;6.04;83.36;93733.59;5156278;27;20203;-73
2021/12/05 15:17:04;;;;;;;28.85;13.68;;;;;;;5.92;83.78;93722.72;5158815;27;20192;-73
2021/12/05 15:19:30;;;;;;;30.45;13.23;;;;;;;5.95;84.36;93733.63;5163357;27;20267;-73
2021/12/05 15:21:59;;;;;;;25.20;13.10;;;;;;;5.92;84.24;93733.47;5160750;27;20199;-73
2021/12/05 15:24:28;;;;;;;30.95;14.75;;;;;;;5.92;84.65;93733.47;5155276;27;20203;-73
2021/12/05 15:26:59;;;;;;;30.65;15.65;;;;;;;5.83;84.67;93741.53;5156043;27;20284;-75
2021/12/05 15:29:28;;;;;;;28.90;14.60;;;;;;;5.78;84.83;93740.91;5162636;27;20200;-74
2021/12/05 15:31:56;;;;;;;23.25;12.00;;;;;;;5.81;84.87;93726.84;5144966;27;20279;-74
2021/12/05 15:34:28;;;;;;;33.75;15.40;;;;;;;5.72;84.93;93738.41;5161558;27;20214;-74
2021/12/05 15:36:56;;;;;;;24.20;12.18;;;;;;;5.58;85.51;93732.41;5133966;27;20205;-75
2021/12/05 15:39:26;;;;;;;23.63;13.80;;;;;;;5.57;85.52;93749.63;5157128;27;20259;-73
2021/12/05 15:41:55;;;;;;;26.20;11.88;;;;;;;5.52;85.47;93752.47;5152681;27;20251;-73
2021/12/05 15:44:31;;;;;;;22.75;11.73;;;;;;;5.43;85.70;93738.25;5141382;27;20212;-73
2021/12/05 15:47:05;;;;;;;28.42;12.75;;;;;;;5.28;86.28;93746.78;5145310;27;20184;-72
2021/12/05 15:49:54;;;;;;;24.63;13.38;;;;;;;5.14;86.82;93751.53;5151447;27;20197;-73
2021/12/05 15:52:29;;;;;;;26.17;12.27;;;;;;;5.08;86.81;93752.78;5133841;27;20921;-73
2021/12/05 15:54:56;;;;;;;15.05;7.20;;;;;;;5.01;87.18;93750.56;5121753;27;20300;-71
2021/12/05 15:57:31;;;;;;;27.63;12.55;;;;;;;4.91;87.56;93757.03;5112099;27;20734;-71
2021/12/05 16:00:05;;;;;;;24.88;12.48;;;;;;;4.90;87.66;93782.28;5128401;27;20695;-72
2021/12/05 16:02:32;;;;;;;30.10;12.15;;;;;;;4.82;87.82;93777.66;5132026;27;20250;-71
2021/12/05 16:04:59;;;;;;;32.05;13.48;;;;;;;4.72;88.04;93783.31;5147268;27;20193;-71